Time;durP1;ratioP1;P1;durP2;ratioP2;P2;SDS_P1;SDS_P2;PMS_P1;PMS_P2;Temp;Humidity;BMP_temperature;BMP_pressure;BME280_temperature;BME280_humidity;BME280_pressure;Samples;Min_cycle;Max_cycle;Signal;HPM_P1;HPM_P2
2023/07/19 00:01:51;;;;;;;5.53;4.60;;;;;;;18.17;84.32;97452.88;6196835;28;20244;-39
2023/07/19 00:04:53;;;;;;;4.87;4.27;;;;;;;17.86;84.15;97436.44;6194492;28;20331;-39
2023/07/19 00:07:56;;;;;;;7.47;4.37;;;;;;;18.14;84.66;97450.81;6193805;28;20236;-39
2023/07/19 00:10:59;;;;;;;5.90;4.10;;;;;;;18.16;84.32;97463.97;6198726;28;20239;-39
2023/07/19 00:14:05;;;;;;;6.37;4.07;;;;;;;18.16;83.69;97459.38;6196828;28;20229;-39
2023/07/19 00:17:08;;;;;;;6.37;4.00;;;;;;;18.19;83.57;97448.00;6178307;28;21016;-39
2023/07/19 00:20:11;;;;;;;6.40;4.03;;;;;;;18.11;82.60;97412.84;6196269;28;20228;-39
2023/07/19 00:23:14;;;;;;;6.83;4.50;;;;;;;18.00;82.10;97409.53;6183422;28;20267;-39
2023/07/19 00:26:16;;;;;;;5.97;3.80;;;;;;;18.21;82.88;97448.50;6193609;28;20225;-39
2023/07/19 00:29:19;;;;;;;7.87;3.90;;;;;;;18.18;83.01;97478.78;6193580;28;20233;-39
2023/07/19 00:32:22;;;;;;;6.07;4.20;;;;;;;18.10;82.77;97470.56;6195357;28;20228;-39
2023/07/19 00:35:24;;;;;;;4.63;3.30;;;;;;;18.11;83.04;97464.06;6195116;28;20301;-39
2023/07/19 00:38:26;;;;;;;5.13;3.93;;;;;;;18.20;82.84;97465.78;6193089;28;20244;-39
2023/07/19 00:41:29;;;;;;;8.90;4.13;;;;;;;18.22;82.60;97449.31;6193093;28;20721;-39
2023/07/19 00:44:32;;;;;;;8.17;4.17;;;;;;;18.27;81.92;97454.59;6185474;28;20232;-39
2023/07/19 00:47:36;;;;;;;8.87;3.77;;;;;;;18.35;81.62;97461.22;6199295;28;20799;-40
2023/07/19 00:50:39;;;;;;;6.17;3.90;;;;;;;18.39;80.75;97451.44;6193412;28;20225;-40
2023/07/19 00:53:44;;;;;;;4.63;3.40;;;;;;;18.38;81.11;97428.28;6194296;28;20362;-39
2023/07/19 00:56:48;;;;;;;4.93;3.33;;;;;;;18.46;80.22;97406.78;6192786;28;21029;-40
2023/07/19 00:59:50;;;;;;;5.03;3.57;;;;;;;18.51;79.20;97413.97;6196348;28;20371;-39
2023/07/19 01:02:53;;;;;;;6.20;3.47;;;;;;;18.49;79.17;97395.41;6195447;28;20618;-39
2023/07/19 01:05:58;;;;;;;6.97;4.07;;;;;;;18.50;79.40;97402.41;6171526;28;20287;-39
2023/07/19 01:09:01;;;;;;;7.67;3.50;;;;;;;18.47;79.32;97388.69;6194370;28;20221;-39
2023/07/19 01:12:03;;;;;;;4.93;3.77;;;;;;;18.45;78.92;97385.50;6192067;28;20237;-40
2023/07/19 01:15:09;;;;;;;5.53;3.40;;;;;;;18.44;79.58;97386.63;6195325;28;20217;-39
2023/07/19 01:18:11;;;;;;;8.30;3.40;;;;;;;18.43;79.01;97393.91;6193962;28;20561;-39
2023/07/19 01:21:13;;;;;;;6.30;3.60;;;;;;;18.42;78.50;97391.50;6177552;28;20630;-39
2023/07/19 01:24:27;;;;;;;6.83;3.47;;;;;;;18.41;79.12;97389.91;6174382;28;20221;-39
2023/07/19 01:27:30;;;;;;;5.17;3.30;;;;;;;18.38;79.45;97394.00;6176437;28;20220;-39
2023/07/19 01:30:32;;;;;;;6.33;3.70;;;;;;;18.35;79.32;97388.41;6192231;28;20225;-39
2023/07/19 01:33:34;;;;;;;6.57;3.43;;;;;;;18.30;79.56;97379.31;6193616;28;20707;-39
2023/07/19 01:36:37;;;;;;;6.90;4.17;;;;;;;18.29;79.64;97377.72;6197162;28;20319;-39
2023/07/19 01:39:39;;;;;;;3.77;3.20;;;;;;;18.27;79.63;97371.84;6195748;28;20742;-39
2023/07/19 01:42:42;;;;;;;4.60;3.70;;;;;;;18.20;79.45;97362.53;6179862;28;20235;-39
2023/07/19 01:45:44;;;;;;;4.83;3.60;;;;;;;18.15;78.93;97360.72;6173461;28;20232;-40
2023/07/19 01:48:47;;;;;;;5.80;3.50;;;;;;;18.23;79.19;97380.81;6191912;28;20237;-39
2023/07/19 01:51:49;;;;;;;4.47;3.80;;;;;;;18.08;79.58;97365.72;6193064;28;20233;-39
2023/07/19 01:54:52;;;;;;;10.10;3.53;;;;;;;18.10;79.92;97377.00;6194439;28;20799;-39
2023/07/19 01:57:54;;;;;;;5.43;3.70;;;;;;;18.10;80.10;97395.06;6191598;28;20294;-39
2023/07/19 02:00:56;;;;;;;4.30;3.90;;;;;;;18.07;80.48;97398.34;6184836;28;20236;-39
2023/07/19 02:03:59;;;;;;;6.63;3.60;;;;;;;18.00;80.01;97396.84;6194392;28;20271;-39
2023/07/19 02:07:01;;;;;;;6.00;3.37;;;;;;;18.04;80.14;97395.16;6179755;28;20550;-39
2023/07/19 02:10:04;;;;;;;4.67;3.50;;;;;;;18.04;80.13;97402.47;6192298;28;20236;-39
2023/07/19 02:13:06;;;;;;;5.40;3.30;;;;;;;18.01;79.90;97403.03;6190855;28;20237;-39
2023/07/19 02:16:09;;;;;;;6.07;3.90;;;;;;;17.96;79.79;97403.13;6177763;28;20637;-39
2023/07/19 02:19:12;;;;;;;7.53;4.40;;;;;;;17.90;80.35;97402.41;6195326;28;20232;-39
2023/07/19 02:22:17;;;;;;;6.60;3.83;;;;;;;17.88;81.10;97419.97;6192020;28;20648;-39
2023/07/19 02:25:19;;;;;;;7.00;4.17;;;;;;;17.80;81.05;97416.06;6178779;28;20318;-39
2023/07/19 02:28:21;;;;;;;5.70;3.47;;;;;;;17.79;80.97;97406.38;6178322;28;20233;-39
2023/07/19 02:31:23;;;;;;;7.40;4.27;;;;;;;17.78;80.66;97410.16;6189529;28;20319;-40
2023/07/19 02:34:26;;;;;;;5.43;3.73;;;;;;;17.76;81.18;97406.97;6192461;28;20329;-40
2023/07/19 02:37:28;;;;;;;6.03;3.87;;;;;;;17.68;81.48;97413.78;6190478;28;20228;-40
2023/07/19 02:40:30;;;;;;;4.70;3.77;;;;;;;17.65;81.46;97410.91;6194075;28;20236;-39
2023/07/19 02:43:34;;;;;;;6.47;3.90;;;;;;;17.47;82.35;97402.53;6191434;28;20232;-40
2023/07/19 02:46:36;;;;;;;7.73;3.87;;;;;;;17.55;82.31;97422.63;6199937;28;20282;-39
2023/07/19 02:49:41;;;;;;;4.60;3.60;;;;;;;17.36;82.73;97403.00;6194807;28;20233;-40
2023/07/19 02:52:45;;;;;;;4.80;3.93;;;;;;;17.47;82.88;97425.97;6191641;28;20275;-39
2023/07/19 02:55:47;;;;;;;5.17;3.87;;;;;;;17.43;82.60;97424.97;6190987;28;20324;-39
2023/07/19 02:58:50;;;;;;;7.33;4.00;;;;;;;17.38;83.39;97430.41;6194814;28;20724;-39
2023/07/19 03:01:52;;;;;;;5.87;3.87;;;;;;;17.36;83.53;97421.84;6193619;28;20251;-39
2023/07/19 03:04:55;;;;;;;9.17;3.90;;;;;;;17.29;83.49;97419.53;6185081;28;20686;-39
2023/07/19 03:07:57;;;;;;;6.83;3.90;;;;;;;17.33;84.51;97428.59;6189650;28;20692;-39
2023/07/19 03:11:00;;;;;;;6.50;3.63;;;;;;;17.34;83.92;97437.47;6190461;28;20674;-40
2023/07/19 03:14:02;;;;;;;5.90;3.47;;;;;;;17.37;83.61;97431.50;6187685;28;20225;-39
2023/07/19 03:17:04;;;;;;;7.40;3.63;;;;;;;17.40;82.64;97445.22;6186159;28;20237;-39
2023/07/19 03:20:07;;;;;;;7.20;3.90;;;;;;;17.42;83.18;97443.00;6192733;28;20251;-39
2023/07/19 03:23:10;;;;;;;5.00;3.50;;;;;;;17.44;82.71;97440.03;6179247;28;20260;-39
2023/07/19 03:26:13;;;;;;;5.53;3.50;;;;;;;17.39;83.08;97435.53;6191592;28;20240;-39
2023/07/19 03:29:16;;;;;;;6.90;3.53;;;;;;;17.08;82.40;97392.06;6170698;28;20376;-39
2023/07/19 03:32:18;;;;;;;5.43;3.50;;;;;;;17.48;82.57;97457.19;6188181;28;20233;-39
2023/07/19 03:35:20;;;;;;;5.37;3.70;;;;;;;17.32;82.79;97440.47;6177772;28;20537;-39
2023/07/19 03:38:24;;;;;;;6.80;4.10;;;;;;;17.56;82.20;97451.16;6191619;28;20606;-40
2023/07/19 03:41:28;;;;;;;6.53;3.50;;;;;;;17.63;81.94;97465.06;6175608;28;20246;-40
2023/07/19 03:44:30;;;;;;;5.70;3.50;;;;;;;17.68;81.60;97459.59;6175057;28;20251;-40
2023/07/19 03:47:34;;;;;;;6.57;3.30;;;;;;;17.72;81.01;97457.13;6168854;28;20690;-40
2023/07/19 03:50:43;;;;;;;12.87;3.40;;;;;;;17.78;81.34;97451.41;6182434;28;20233;-39
2023/07/19 03:53:49;;;;;;;5.47;3.73;;;;;;;17.83;81.10;97458.56;6180701;28;20239;-39
2023/07/19 03:56:52;;;;;;;6.07;3.73;;;;;;;17.89;80.66;97448.53;6194687;28;20260;-40
2023/07/19 03:59:54;;;;;;;7.20;4.03;;;;;;;17.93;80.72;97450.34;6183501;28;20604;-40
2023/07/19 04:02:56;;;;;;;4.33;3.40;;;;;;;17.95;80.66;97452.75;6195523;28;20243;-40
2023/07/19 04:05:58;;;;;;;7.70;3.70;;;;;;;17.99;80.94;97440.28;6185729;28;20231;-40
2023/07/19 04:09:01;;;;;;;5.70;3.80;;;;;;;18.04;80.56;97441.00;6186751;28;20319;-41
2023/07/19 04:12:04;;;;;;;6.90;3.70;;;;;;;17.90;79.93;97407.81;6184057;28;20748;-40
2023/07/19 04:15:07;;;;;;;7.77;3.80;;;;;;;18.16;80.60;97437.81;6195293;28;20213;-39
2023/07/19 04:18:09;;;;;;;7.87;3.77;;;;;;;18.18;80.50;97435.63;6179197;28;20312;-39
2023/07/19 04:21:12;;;;;;;6.23;3.50;;;;;;;18.29;79.99;97442.44;6196012;28;20221;-39
2023/07/19 04:24:14;;;;;;;5.57;3.83;;;;;;;18.42;79.67;97445.44;6195635;28;20235;-40
2023/07/19 04:27:16;;;;;;;7.67;3.43;;;;;;;18.50;79.45;97447.47;6192156;28;20215;-39
2023/07/19 04:30:19;;;;;;;5.87;3.87;;;;;;;18.49;79.34;97430.47;6182077;28;20786;-39
2023/07/19 04:33:21;;;;;;;4.23;3.43;;;;;;;18.62;79.80;97425.38;6177155;28;20236;-39
2023/07/19 04:36:23;;;;;;;10.47;3.80;;;;;;;18.81;77.82;97426.88;6182773;28;20239;-39
2023/07/19 04:39:26;;;;;;;6.40;3.47;;;;;;;19.20;72.77;97419.34;6179296;28;20308;-39
2023/07/19 04:42:28;;;;;;;8.50;3.67;;;;;;;19.44;72.90;97422.56;6195924;28;20632;-39
2023/07/19 04:45:31;;;;;;;5.17;3.10;;;;;;;19.65;72.87;97422.13;6199492;28;20722;-39
2023/07/19 04:48:34;;;;;;;8.83;4.00;;;;;;;19.88;69.24;97434.53;6183539;28;20695;-39
2023/07/19 04:51:38;;;;;;;6.43;3.20;;;;;;;19.96;71.75;97430.31;6176461;28;20248;-39
2023/07/19 04:54:40;;;;;;;8.47;3.40;;;;;;;19.97;70.27;97399.44;6197303;28;20224;-40
2023/07/19 04:57:43;;;;;;;7.40;3.10;;;;;;;20.44;67.40;97421.47;6182010;28;20228;-39
2023/07/19 05:00:46;;;;;;;7.93;3.73;;;;;;;20.61;67.54;97425.09;6183784;28;20723;-39
2023/07/19 05:03:48;;;;;;;8.40;4.33;;;;;;;20.60;68.49;97426.19;6193175;28;20323;-40
2023/07/19 05:06:50;;;;;;;5.30;3.20;;;;;;;20.58;68.32;97433.03;6161181;28;20237;-39
2023/07/19 05:09:53;;;;;;;6.47;3.10;;;;;;;20.75;66.77;97435.81;6153791;28;20291;-39
2023/07/19 05:12:56;;;;;;;7.03;4.00;;;;;;;21.15;65.14;97449.28;6165701;28;20252;-39
2023/07/19 05:16:00;;;;;;;7.63;3.30;;;;;;;21.32;62.89;97445.81;6153245;28;20719;-40
2023/07/19 05:19:02;;;;;;;9.13;4.13;;;;;;;21.47;62.51;97463.53;6157754;28;20225;-39
2023/07/19 05:22:05;;;;;;;5.40;3.40;;;;;;;21.51;64.06;97469.91;6173855;28;20375;-39
2023/07/19 05:25:09;;;;;;;5.20;3.60;;;;;;;21.45;66.26;97465.78;6157355;28;20238;-40
2023/07/19 05:28:12;;;;;;;6.77;3.80;;;;;;;21.52;63.80;97466.88;6168054;28;20242;-40
2023/07/19 05:31:14;;;;;;;6.90;3.13;;;;;;;21.84;61.77;97472.97;6171686;28;20732;-39
2023/07/19 05:34:17;;;;;;;7.37;3.60;;;;;;;21.95;62.94;97473.44;6171793;28;20225;-39
2023/07/19 05:37:19;;;;;;;6.90;3.47;;;;;;;21.97;62.30;97471.19;6168018;28;20210;-40
2023/07/19 05:40:21;;;;;;;8.47;4.03;;;;;;;21.96;63.99;97473.09;6170776;28;20238;-40
2023/07/19 05:43:23;;;;;;;6.73;3.67;;;;;;;21.95;64.52;97476.94;6170697;28;20237;-40
2023/07/19 05:46:26;;;;;;;6.47;3.60;;;;;;;21.94;64.53;97479.97;6167975;28;20303;-40
2023/07/19 05:49:28;;;;;;;6.63;3.43;;;;;;;21.90;66.10;97475.19;6167978;28;20320;-40
2023/07/19 05:52:31;;;;;;;5.77;3.30;;;;;;;21.85;68.27;97478.06;6150720;28;20241;-40
2023/07/19 05:55:37;;;;;;;5.80;3.70;;;;;;;21.84;68.17;97468.31;6170426;28;20225;-40
2023/07/19 05:58:39;;;;;;;5.90;3.20;;;;;;;21.88;67.66;97466.56;6168422;28;20647;-40
2023/07/19 06:01:43;;;;;;;6.30;3.40;;;;;;;21.90;68.92;97461.63;6166465;28;20234;-40
2023/07/19 06:04:47;;;;;;;6.10;3.60;;;;;;;22.07;63.06;97465.44;6167578;28;20241;-40
2023/07/19 06:07:49;;;;;;;4.60;3.20;;;;;;;22.24;62.80;97476.28;6189058;28;20241;-40
2023/07/19 06:10:52;;;;;;;8.53;3.60;;;;;;;22.47;59.83;97473.38;6193566;28;20232;-40
2023/07/19 06:13:55;;;;;;;7.13;3.87;;;;;;;22.83;57.93;97465.53;6190247;28;20244;-40
2023/07/19 06:16:58;;;;;;;4.47;3.33;;;;;;;22.91;58.53;97475.59;6190383;28;20233;-40
2023/07/19 06:20:00;;;;;;;4.63;3.17;;;;;;;22.95;58.99;97462.16;6194797;28;20243;-40
2023/07/19 06:23:03;;;;;;;7.43;3.83;;;;;;;22.95;62.93;97469.50;6195641;28;20262;-40
2023/07/19 06:26:05;;;;;;;6.20;3.27;;;;;;;22.78;63.26;97465.72;6190157;28;20232;-40
2023/07/19 06:29:07;;;;;;;5.70;3.75;;;;;;;22.78;63.98;97468.44;6191093;28;20243;-40
2023/07/19 06:32:10;;;;;;;4.72;3.33;;;;;;;22.84;66.00;97480.72;6191096;28;20236;-40
2023/07/19 06:35:12;;;;;;;4.47;3.45;;;;;;;22.91;60.82;97489.19;6177521;28;20233;-40
2023/07/19 06:38:15;;;;;;;5.47;3.42;;;;;;;23.04;61.55;97486.56;6172284;28;20222;-40
2023/07/19 06:41:17;;;;;;;4.28;3.67;;;;;;;23.11;63.01;97493.09;6194578;28;20232;-40
2023/07/19 06:44:20;;;;;;;8.65;3.80;;;;;;;23.28;58.64;97494.09;6191201;28;20243;-53
2023/07/19 06:47:22;;;;;;;6.50;3.78;;;;;;;23.28;57.48;97494.09;6193788;28;20258;-40
2023/07/19 06:50:24;;;;;;;7.03;3.65;;;;;;;23.43;58.55;97499.75;6190570;28;20601;-41
2023/07/19 06:53:27;;;;;;;5.05;3.45;;;;;;;23.33;61.08;97494.72;6189472;28;20259;-40
2023/07/19 06:56:29;;;;;;;4.90;3.58;;;;;;;22.97;59.69;97434.66;6191395;28;20255;-40
2023/07/19 06:59:31;;;;;;;5.15;3.20;;;;;;;23.44;58.22;97486.97;6193516;28;20236;-40
2023/07/19 07:02:34;;;;;;;7.22;3.50;;;;;;;23.55;58.44;97468.34;6171277;28;20586;-42
2023/07/19 07:05:38;;;;;;;5.75;3.78;;;;;;;23.64;58.99;97466.38;6191783;28;20374;-39
2023/07/19 07:08:42;;;;;;;7.55;3.38;;;;;;;23.75;57.45;97464.06;6191241;28;20686;-41
2023/07/19 07:11:44;;;;;;;6.43;3.40;;;;;;;23.81;57.87;97465.44;6190834;28;20236;-40
2023/07/19 07:14:47;;;;;;;5.47;3.95;;;;;;;24.03;53.84;97470.50;6190312;28;20741;-38
2023/07/19 07:17:52;;;;;;;7.85;3.72;;;;;;;24.30;54.01;97471.84;6189181;28;20228;-39
2023/07/19 07:20:54;;;;;;;4.13;3.25;;;;;;;24.63;49.92;97457.41;6193780;28;20231;-38
2023/07/19 07:23:57;;;;;;;4.82;3.55;;;;;;;24.84;47.04;97449.16;6195131;28;20232;-40
2023/07/19 07:27:03;;;;;;;7.43;3.80;;;;;;;24.80;48.83;97454.50;6195169;28;20236;-39
2023/07/19 07:30:07;;;;;;;6.45;3.65;;;;;;;24.90;48.73;97459.47;6179208;28;20228;-39
2023/07/19 07:33:09;;;;;;;4.47;3.25;;;;;;;25.24;45.18;97460.19;6197506;28;20303;-38
2023/07/19 07:36:13;;;;;;;4.97;3.30;;;;;;;25.10;46.09;97455.06;6196909;28;20209;-40
2023/07/19 07:39:17;;;;;;;6.75;3.50;;;;;;;25.04;46.28;97467.31;6196805;28;20220;-41
2023/07/19 07:42:20;;;;;;;7.43;3.25;;;;;;;25.04;45.77;97464.59;6194584;28;20224;-40
2023/07/19 07:45:23;;;;;;;5.97;3.40;;;;;;;24.99;46.66;97461.31;6191904;28;20224;-40
2023/07/19 07:48:25;;;;;;;6.40;3.60;;;;;;;25.01;47.62;97473.44;6194417;28;20225;-38
2023/07/19 07:51:29;;;;;;;4.95;3.70;;;;;;;24.94;46.70;97465.06;6195831;28;20339;-41
2023/07/19 07:54:32;;;;;;;3.45;3.15;;;;;;;24.84;47.35;97476.41;6192245;28;20224;-41
2023/07/19 07:57:34;;;;;;;5.47;3.05;;;;;;;24.82;49.25;97486.84;6194235;28;20235;-41
2023/07/19 08:00:37;;;;;;;4.78;3.20;;;;;;;24.85;48.94;97489.69;6196265;28;20228;-38
2023/07/19 08:03:42;;;;;;;8.52;3.85;;;;;;;24.85;49.25;97495.13;6190365;28;20237;-40
2023/07/19 08:06:44;;;;;;;4.03;3.53;;;;;;;24.87;49.76;97481.94;6170529;28;20248;-39
2023/07/19 08:09:47;;;;;;;7.25;3.50;;;;;;;24.90;48.46;97488.66;6196354;28;20235;-39
2023/07/19 08:12:49;;;;;;;6.75;3.80;;;;;;;24.81;47.62;97471.63;6197430;28;20781;-39
2023/07/19 08:15:53;;;;;;;7.75;3.78;;;;;;;24.93;46.90;97482.53;6189841;28;20241;-39
2023/07/19 08:18:55;;;;;;;5.75;3.47;;;;;;;24.73;49.60;97472.50;6191401;28;20229;-39
2023/07/19 08:22:03;;;;;;;7.03;3.80;;;;;;;24.69;47.91;97469.69;6191397;28;20232;-39
2023/07/19 08:25:08;;;;;;;7.78;3.60;;;;;;;24.89;46.67;97463.34;6194499;28;20230;-38
2023/07/19 08:28:27;;;;;;;5.78;3.42;;;;;;;24.82;47.54;97459.59;6192369;28;20242;-38
2023/07/19 08:31:30;;;;;;;6.65;3.90;;;;;;;24.71;48.13;97457.31;6193240;28;20232;-39
2023/07/19 08:34:32;;;;;;;4.90;3.45;;;;;;;24.58;49.36;97449.47;6178957;28;20237;-39
2023/07/19 08:37:35;;;;;;;3.60;3.08;;;;;;;24.48;51.56;97447.19;6191716;28;20719;-38
2023/07/19 08:40:38;;;;;;;8.18;3.25;;;;;;;24.51;54.27;97460.13;6174619;28;20228;-38
2023/07/19 08:43:42;;;;;;;4.65;3.58;;;;;;;24.50;54.18;97456.63;6191565;28;20240;-38
2023/07/19 08:46:46;;;;;;;3.90;3.30;;;;;;;24.58;51.47;97458.44;6197029;28;20237;-38
2023/07/19 08:49:49;;;;;;;5.50;3.40;;;;;;;24.97;47.32;97450.72;6195688;28;20323;-38
2023/07/19 08:52:52;;;;;;;5.18;3.70;;;;;;;25.34;46.62;97456.19;6191714;28;20278;-38
2023/07/19 08:55:54;;;;;;;5.32;3.17;;;;;;;25.37;46.47;97450.03;6181943;28;20236;-39
2023/07/19 08:58:58;;;;;;;4.85;2.97;;;;;;;25.35;49.70;97455.84;6195639;28;20342;-39
2023/07/19 09:02:03;;;;;;;8.00;3.47;;;;;;;25.37;50.60;97447.31;6181997;28;20607;-38
2023/07/19 09:05:07;;;;;;;5.05;3.30;;;;;;;25.39;50.99;97451.28;6197122;28;20395;-38
2023/07/19 09:08:09;;;;;;;5.80;3.20;;;;;;;25.86;42.96;97449.91;6192995;28;20233;-39
2023/07/19 09:11:19;;;;;;;5.82;3.70;;;;;;;25.73;45.19;97440.97;6191686;28;20243;-39
2023/07/19 09:14:35;;;;;;;5.22;3.38;;;;;;;25.50;48.78;97415.34;6194658;28;20825;-39
2023/07/19 09:17:44;;;;;;;5.60;3.45;;;;;;;25.61;47.86;97447.25;6183381;28;20232;-39
2023/07/19 09:20:49;;;;;;;8.00;3.72;;;;;;;25.67;45.19;97436.91;6194761;28;20292;-39
2023/07/19 09:23:53;;;;;;;5.05;3.35;;;;;;;25.74;46.42;97439.81;6190334;28;20264;-39
2023/07/19 09:26:56;;;;;;;4.65;3.50;;;;;;;25.71;48.43;97443.22;6192426;28;20248;-38
2023/07/19 09:30:00;;;;;;;7.55;3.50;;;;;;;25.72;45.86;97429.25;6191031;28;20387;-38
2023/07/19 09:33:03;;;;;;;7.32;3.53;;;;;;;25.75;45.99;97430.50;6165717;28;20240;-38
2023/07/19 09:36:05;;;;;;;4.60;3.08;;;;;;;25.63;49.98;97433.28;6193118;28;20221;-39
2023/07/19 09:39:07;;;;;;;6.47;2.92;;;;;;;25.53;52.54;97439.22;6192075;28;20603;-39
2023/07/19 09:42:13;;;;;;;4.82;3.63;;;;;;;25.32;53.94;97448.34;6179040;28;20582;-38
2023/07/19 09:45:17;;;;;;;4.95;3.15;;;;;;;25.21;53.67;97444.50;6194922;28;20228;-38
2023/07/19 09:48:22;;;;;;;8.82;3.20;;;;;;;25.15;48.01;97440.41;6187484;28;20236;-38
2023/07/19 09:51:25;;;;;;;7.38;3.10;;;;;;;25.14;47.56;97433.38;6189422;28;20233;-39
2023/07/19 09:54:31;;;;;;;6.25;2.88;;;;;;;25.05;50.97;97428.03;6194402;28;20231;-39
2023/07/19 09:57:38;;;;;;;6.65;3.13;;;;;;;24.84;54.76;97419.19;6191482;28;20233;-39
2023/07/19 10:00:40;;;;;;;5.15;3.13;;;;;;;24.81;55.32;97411.69;6195475;28;20232;-39
2023/07/19 10:03:46;;;;;;;5.63;3.13;;;;;;;24.71;56.14;97411.00;6173979;28;20267;-39
2023/07/19 10:07:08;;;;;;;5.90;3.20;;;;;;;24.82;53.60;97405.88;6193444;28;20240;-39
2023/07/19 10:10:14;;;;;;;8.05;3.20;;;;;;;24.77;54.74;97405.31;6194544;28;20237;-38
2023/07/19 10:13:17;;;;;;;4.68;3.20;;;;;;;24.71;52.17;97416.44;6191905;28;20319;-38
2023/07/19 10:16:36;;;;;;;6.97;3.60;;;;;;;24.84;49.57;97416.47;6190304;28;20240;-39
2023/07/19 10:20:16;;;;;;;8.23;4.13;;;;;;;25.00;49.20;97420.06;6193507;28;20895;-38
2023/07/19 10:23:19;;;;;;;8.13;3.47;;;;;;;25.30;46.07;97406.19;6191293;28;20602;-39
2023/07/19 10:26:31;;;;;;;7.00;3.17;;;;;;;25.46;50.14;97407.84;6191618;28;20234;-39
2023/07/19 10:29:43;;;;;;;6.72;3.10;;;;;;;25.53;47.93;97398.31;6194121;28;20236;-38
2023/07/19 10:32:50;;;;;;;7.70;3.20;;;;;;;25.59;45.82;97386.00;6191968;28;20216;-38
2023/07/19 10:35:55;;;;;;;4.47;3.30;;;;;;;25.41;46.87;97369.91;6191575;28;20240;-39
2023/07/19 10:38:57;;;;;;;6.25;3.47;;;;;;;25.51;49.29;97384.19;6190617;28;20287;-38
2023/07/19 10:42:01;;;;;;;6.90;3.45;;;;;;;25.52;49.93;97391.22;6187835;28;20220;-38
2023/07/19 10:45:03;;;;;;;5.93;3.28;;;;;;;25.51;51.23;97389.66;6194029;28;20318;-38
2023/07/19 10:48:06;;;;;;;5.35;3.63;;;;;;;25.54;52.81;97381.56;6190749;28;20754;-39
2023/07/19 10:51:09;;;;;;;6.85;3.30;;;;;;;25.37;55.24;97376.41;6190992;28;20224;-39
2023/07/19 10:54:14;;;;;;;7.35;3.85;;;;;;;25.65;54.08;97376.41;6187453;28;20298;-38
2023/07/19 10:57:22;;;;;;;10.85;4.05;;;;;;;25.94;50.64;97378.00;6172643;28;20229;-38
2023/07/19 11:00:43;;;;;;;6.45;3.38;;;;;;;26.31;46.35;97367.66;6202013;28;20245;-38
2023/07/19 11:03:46;;;;;;;6.53;3.70;;;;;;;26.47;48.78;97384.06;6193188;28;20364;-38
2023/07/19 11:06:54;;;;;;;8.43;3.35;;;;;;;26.70;45.80;97365.13;6196614;28;20264;-38
2023/07/19 11:09:56;;;;;;;6.63;3.47;;;;;;;26.94;45.89;97344.94;6179115;28;20232;-38
2023/07/19 11:12:58;;;;;;;7.35;3.15;;;;;;;27.42;46.27;97351.84;6193805;28;20244;-39
2023/07/19 11:16:01;;;;;;;11.07;3.80;;;;;;;27.53;45.76;97354.78;6197839;28;20224;-38
2023/07/19 11:19:03;;;;;;;7.18;3.50;;;;;;;27.40;44.93;97356.91;6196475;28;20233;-38
2023/07/19 11:22:07;;;;;;;7.20;3.50;;;;;;;27.42;46.88;97348.34;6197898;28;20672;-39
2023/07/19 11:25:11;;;;;;;7.65;3.40;;;;;;;27.84;41.38;97353.88;6195549;28;20228;-39
2023/07/19 11:28:13;;;;;;;8.27;3.88;;;;;;;27.80;43.54;97333.06;6195921;28;20236;-38
2023/07/19 11:31:28;;;;;;;6.18;3.30;;;;;;;27.95;44.26;97334.91;6191907;28;20607;-38
2023/07/19 11:34:44;;;;;;;6.90;3.50;;;;;;;28.29;39.51;97327.66;6198026;28;20777;-38
2023/07/19 11:37:51;;;;;;;8.05;3.95;;;;;;;28.53;40.74;97310.84;6192033;28;20303;-38
2023/07/19 11:40:54;;;;;;;6.00;3.35;;;;;;;28.68;38.58;97319.28;6196054;28;20224;-38
2023/07/19 11:43:56;;;;;;;7.53;3.97;;;;;;;28.59;39.13;97302.31;6183953;28;20251;-38
2023/07/19 11:46:59;;;;;;;7.05;3.50;;;;;;;28.50;41.51;97286.91;6194659;28;20573;-39
2023/07/19 11:50:05;;;;;;;7.15;3.33;;;;;;;28.46;42.14;97288.00;6193219;28;20233;-38
2023/07/19 11:53:07;;;;;;;8.93;3.65;;;;;;;28.58;41.65;97289.78;6199209;28;20228;-38
2023/07/19 11:56:09;;;;;;;8.05;3.83;;;;;;;28.60;40.94;97277.25;6198272;28;20259;-38
2023/07/19 11:59:13;;;;;;;5.85;3.42;;;;;;;28.73;39.13;97275.88;6191018;28;20232;-39
2023/07/19 12:02:16;;;;;;;5.43;3.17;;;;;;;28.80;39.92;97277.94;6195328;28;20363;-38
2023/07/19 12:05:25;;;;;;;6.88;3.60;;;;;;;28.82;41.13;97274.81;6196362;28;20382;-39
2023/07/19 12:08:29;;;;;;;5.57;3.30;;;;;;;28.79;41.50;97273.63;6194492;28;20221;-39
2023/07/19 12:11:31;;;;;;;8.85;4.07;;;;;;;28.82;39.56;97272.06;6191629;28;20251;-38
2023/07/19 12:14:33;;;;;;;6.68;3.45;;;;;;;28.97;40.95;97258.22;6194799;28;20235;-38
2023/07/19 12:17:36;;;;;;;7.43;3.70;;;;;;;29.04;41.17;97279.44;6188311;28;20233;-39
2023/07/19 12:20:39;;;;;;;7.45;4.00;;;;;;;29.22;38.56;97249.50;6195969;28;20247;-38
2023/07/19 12:23:43;;;;;;;5.30;3.47;;;;;;;29.28;38.28;97261.72;6182986;28;20243;-39
2023/07/19 12:27:03;;;;;;;5.80;3.42;;;;;;;29.26;37.63;97253.84;6192008;28;20224;-40
2023/07/19 12:30:06;;;;;;;4.88;3.35;;;;;;;29.17;38.60;97233.38;6195439;28;20212;-39
2023/07/19 12:33:09;;;;;;;4.50;3.47;;;;;;;29.06;37.61;97260.66;6193443;28;20224;-39
2023/07/19 12:36:11;;;;;;;8.30;4.00;;;;;;;29.14;38.93;97221.19;6190144;28;20296;-39
2023/07/19 12:39:14;;;;;;;5.68;3.65;;;;;;;29.44;35.51;97240.31;6191411;28;20348;-39
2023/07/19 12:42:16;;;;;;;6.32;3.92;;;;;;;29.36;36.77;97230.44;6195942;28;20229;-39
2023/07/19 12:45:19;;;;;;;6.03;3.58;;;;;;;29.33;38.31;97239.41;6192857;28;20230;-39
2023/07/19 12:48:21;;;;;;;4.93;3.40;;;;;;;29.37;37.23;97240.25;6194466;28;20755;-39
2023/07/19 12:51:23;;;;;;;7.57;3.60;;;;;;;29.32;35.58;97229.63;6193426;28;20251;-38
2023/07/19 12:54:26;;;;;;;5.95;3.25;;;;;;;29.26;36.75;97217.38;6192313;28;20610;-38
2023/07/19 12:57:28;;;;;;;5.78;3.80;;;;;;;29.18;35.63;97234.94;6194107;28;20262;-38
2023/07/19 13:00:30;;;;;;;6.72;4.22;;;;;;;29.09;36.63;97193.31;6193477;28;20236;-38
2023/07/19 13:03:32;;;;;;;5.80;4.20;;;;;;;29.64;37.95;97216.22;6192258;28;20237;-39
2023/07/19 13:06:35;;;;;;;6.53;3.75;;;;;;;29.47;36.25;97236.81;6196058;28;20255;-39
2023/07/19 13:09:37;;;;;;;8.57;3.63;;;;;;;29.38;37.64;97239.09;6191132;28;20228;-39
2023/07/19 13:12:41;;;;;;;5.22;4.05;;;;;;;29.15;35.46;97227.44;6189117;28;20240;-39
2023/07/19 13:15:44;;;;;;;5.97;3.90;;;;;;;29.24;34.28;97239.72;6192437;28;20240;-38
2023/07/19 13:18:46;;;;;;;4.70;3.75;;;;;;;28.98;35.13;97226.09;6193053;28;20718;-39
2023/07/19 13:21:48;;;;;;;7.28;4.20;;;;;;;29.17;35.13;97245.13;6192002;28;20224;-39
2023/07/19 13:24:50;;;;;;;5.72;3.97;;;;;;;28.95;36.20;97219.38;6192968;28;20259;-38
2023/07/19 13:27:52;;;;;;;4.68;3.42;;;;;;;28.84;37.41;97199.25;6191769;28;20733;-38
2023/07/19 13:30:54;;;;;;;6.53;3.75;;;;;;;28.61;35.12;97190.34;6191543;28;20245;-38
2023/07/19 13:34:00;;;;;;;6.82;3.80;;;;;;;28.74;37.06;97221.84;6191775;28;20236;-38
2023/07/19 13:37:05;;;;;;;4.65;3.58;;;;;;;28.86;38.89;97218.84;6192471;28;20233;-38
2023/07/19 13:40:08;;;;;;;5.78;3.83;;;;;;;29.08;35.56;97205.44;6192788;28;20788;-39
2023/07/19 13:43:11;;;;;;;5.78;4.20;;;;;;;28.93;37.83;97226.41;6192176;28;20603;-38
2023/07/19 13:46:13;;;;;;;4.95;3.60;;;;;;;28.86;37.50;97202.41;6190618;28;20734;-39
2023/07/19 13:49:15;;;;;;;4.32;3.65;;;;;;;29.01;36.03;97200.66;6191265;28;20711;-39
2023/07/19 13:52:17;;;;;;;3.95;3.22;;;;;;;28.94;37.33;97206.84;6191200;28;21060;-38
2023/07/19 13:55:19;;;;;;;5.38;3.60;;;;;;;28.89;39.08;97220.88;6191999;28;20236;-39
2023/07/19 13:58:21;;;;;;;7.18;3.83;;;;;;;28.79;39.70;97222.31;6196663;28;20240;-39
2023/07/19 14:01:23;;;;;;;5.47;4.07;;;;;;;28.60;38.19;97227.13;6192556;28;20236;-39
2023/07/19 14:04:32;;;;;;;4.53;3.75;;;;;;;28.65;36.39;97218.59;6189693;28;20239;-38
2023/07/19 14:07:36;;;;;;;4.97;3.92;;;;;;;28.54;35.66;97229.41;6194999;28;20747;-38
2023/07/19 14:10:38;;;;;;;5.53;3.53;;;;;;;28.38;38.29;97235.06;6192000;28;20240;-38
2023/07/19 14:13:48;;;;;;;4.80;3.78;;;;;;;28.02;39.33;97217.25;6191427;28;20757;-38
2023/07/19 14:16:56;;;;;;;6.47;3.72;;;;;;;28.15;37.15;97224.13;6191338;28;20320;-38
2023/07/19 14:19:59;;;;;;;4.32;3.58;;;;;;;28.13;38.98;97228.38;6188293;28;20591;-38
2023/07/19 14:23:01;;;;;;;7.63;3.42;;;;;;;28.39;36.28;97209.25;6190883;28;20702;-38
2023/07/19 14:26:12;;;;;;;6.07;3.60;;;;;;;28.84;34.11;97210.22;6189396;28;20342;-38